sensor_id;sensor_type;location;lat;lon;timestamp;pressure;altitude;pressure_sealevel;temperature;humidity
58821;BME280;70670;52.476;13.334;2023-07-24T00:02:14;100043.38;;;19.17;64.09
58821;BME280;70670;52.476;13.334;2023-07-24T00:04:40;100038.25;;;19.14;63.78
58821;BME280;70670;52.476;13.334;2023-07-24T00:07:06;100042.38;;;19.19;63.73
58821;BME280;70670;52.476;13.334;2023-07-24T00:09:31;99992.09;;;18.88;63.86
58821;BME280;70670;52.476;13.334;2023-07-24T00:11:57;100037.09;;;19.17;63.46
58821;BME280;70670;52.476;13.334;2023-07-24T00:14:23;100025.84;;;19.12;63.43
58821;BME280;70670;52.476;13.334;2023-07-24T00:16:49;100031.28;;;19.12;63.36
58821;BME280;70670;52.476;13.334;2023-07-24T00:19:14;100025.66;;;19.05;63.50
58821;BME280;70670;52.476;13.334;2023-07-24T00:21:40;99979.41;;;18.89;63.29
58821;BME280;70670;52.476;13.334;2023-07-24T00:24:06;99971.81;;;18.75;63.29
58821;BME280;70670;52.476;13.334;2023-07-24T00:26:31;100033.44;;;19.08;63.40
58821;BME280;70670;52.476;13.334;2023-07-24T00:28:57;100027.19;;;19.08;63.50
58821;BME280;70670;52.476;13.334;2023-07-24T00:31:22;99962.38;;;18.79;63.16
58821;BME280;70670;52.476;13.334;2023-07-24T00:34:06;100017.66;;;19.04;63.24
58821;BME280;70670;52.476;13.334;2023-07-24T00:36:32;100009.03;;;19.08;63.34
58821;BME280;70670;52.476;13.334;2023-07-24T00:38:58;100008.00;;;19.01;63.32
58821;BME280;70670;52.476;13.334;2023-07-24T00:41:23;100017.44;;;18.97;63.51
58821;BME280;70670;52.476;13.334;2023-07-24T00:43:49;100013.78;;;18.88;63.45
58821;BME280;70670;52.476;13.334;2023-07-24T00:46:15;100005.44;;;18.82;63.53
58821;BME280;70670;52.476;13.334;2023-07-24T00:48:40;100010.00;;;18.99;63.23
58821;BME280;70670;52.476;13.334;2023-07-24T00:51:06;99953.50;;;18.59;63.09
58821;BME280;70670;52.476;13.334;2023-07-24T00:53:32;100003.66;;;18.90;62.94
58821;BME280;70670;52.476;13.334;2023-07-24T00:55:57;99977.63;;;18.80;63.19
58821;BME280;70670;52.476;13.334;2023-07-24T00:58:23;99998.06;;;18.92;63.28
58821;BME280;70670;52.476;13.334;2023-07-24T01:00:50;99985.50;;;18.91;62.82
58821;BME280;70670;52.476;13.334;2023-07-24T01:03:15;99999.63;;;18.95;62.63
58821;BME280;70670;52.476;13.334;2023-07-24T01:05:41;99989.31;;;18.98;62.73
58821;BME280;70670;52.476;13.334;2023-07-24T01:08:07;99972.03;;;18.99;62.81
58821;BME280;70670;52.476;13.334;2023-07-24T01:10:33;99972.41;;;19.04;62.57
58821;BME280;70670;52.476;13.334;2023-07-24T01:13:02;99941.38;;;18.81;62.36
58821;BME280;70670;52.476;13.334;2023-07-24T01:15:32;99962.88;;;19.00;62.82
58821;BME280;70670;52.476;13.334;2023-07-24T01:18:06;99969.00;;;19.02;62.55
58821;BME280;70670;52.476;13.334;2023-07-24T01:20:35;99965.97;;;19.05;62.59
58821;BME280;70670;52.476;13.334;2023-07-24T01:23:29;99959.66;;;18.97;63.21
58821;BME280;70670;52.476;13.334;2023-07-24T01:26:01;99971.66;;;18.94;63.48
58821;BME280;70670;52.476;13.334;2023-07-24T01:28:30;99970.75;;;18.85;63.88
58821;BME280;70670;52.476;13.334;2023-07-24T01:30:56;99900.31;;;18.40;63.71
58821;BME280;70670;52.476;13.334;2023-07-24T01:33:23;99970.66;;;18.77;64.27
58821;BME280;70670;52.476;13.334;2023-07-24T01:35:53;99914.16;;;18.37;64.59
58821;BME280;70670;52.476;13.334;2023-07-24T01:38:21;99965.84;;;18.71;64.79
58821;BME280;70670;52.476;13.334;2023-07-24T01:40:47;99962.97;;;18.73;64.55
58821;BME280;70670;52.476;13.334;2023-07-24T01:43:14;99971.72;;;18.66;65.03
58821;BME280;70670;52.476;13.334;2023-07-24T01:45:40;99965.28;;;18.67;65.32
58821;BME280;70670;52.476;13.334;2023-07-24T01:48:05;99967.31;;;18.65;65.33
58821;BME280;70670;52.476;13.334;2023-07-24T01:50:31;99960.78;;;18.58;65.36
58821;BME280;70670;52.476;13.334;2023-07-24T01:52:57;99956.91;;;18.61;65.05
58821;BME280;70670;52.476;13.334;2023-07-24T01:55:23;99956.06;;;18.60;65.01
58821;BME280;70670;52.476;13.334;2023-07-24T01:57:48;99959.19;;;18.65;64.68
58821;BME280;70670;52.476;13.334;2023-07-24T02:00:14;99953.75;;;18.65;64.79
58821;BME280;70670;52.476;13.334;2023-07-24T02:02:39;99949.00;;;18.67;64.32
58821;BME280;70670;52.476;13.334;2023-07-24T02:05:05;99944.72;;;18.75;64.37
58821;BME280;70670;52.476;13.334;2023-07-24T02:07:31;99952.53;;;18.78;64.07
58821;BME280;70670;52.476;13.334;2023-07-24T02:09:57;99949.13;;;18.76;64.22
58821;BME280;70670;52.476;13.334;2023-07-24T02:12:22;99942.69;;;18.77;64.01
58821;BME280;70670;52.476;13.334;2023-07-24T02:14:48;99941.38;;;18.81;64.22
58821;BME280;70670;52.476;13.334;2023-07-24T02:17:15;99933.88;;;18.75;64.00
58821;BME280;70670;52.476;13.334;2023-07-24T02:19:41;99942.00;;;18.75;64.43
58821;BME280;70670;52.476;13.334;2023-07-24T02:22:07;99945.38;;;18.77;64.25
58821;BME280;70670;52.476;13.334;2023-07-24T02:24:32;99926.41;;;18.77;64.58
58821;BME280;70670;52.476;13.334;2023-07-24T02:26:58;99933.16;;;18.73;64.51
58821;BME280;70670;52.476;13.334;2023-07-24T02:29:24;99927.13;;;18.79;64.67
58821;BME280;70670;52.476;13.334;2023-07-24T02:31:50;99877.09;;;18.55;64.59
58821;BME280;70670;52.476;13.334;2023-07-24T02:34:16;99929.34;;;18.83;64.60
58821;BME280;70670;52.476;13.334;2023-07-24T02:36:41;99931.53;;;18.80;64.87
58821;BME280;70670;52.476;13.334;2023-07-24T02:39:07;99933.88;;;18.75;65.30
58821;BME280;70670;52.476;13.334;2023-07-24T02:41:33;99911.63;;;18.53;65.77
58821;BME280;70670;52.476;13.334;2023-07-24T02:43:58;99950.72;;;18.68;66.22
58821;BME280;70670;52.476;13.334;2023-07-24T02:46:24;99954.28;;;18.69;66.09
58821;BME280;70670;52.476;13.334;2023-07-24T02:48:53;99954.44;;;18.67;66.58
58821;BME280;70670;52.476;13.334;2023-07-24T02:51:19;99950.34;;;18.63;66.93
58821;BME280;70670;52.476;13.334;2023-07-24T02:53:44;99897.84;;;18.29;67.10
58821;BME280;70670;52.476;13.334;2023-07-24T02:56:28;99958.75;;;18.60;67.50
58821;BME280;70670;52.476;13.334;2023-07-24T02:58:54;99912.78;;;18.33;67.68
58821;BME280;70670;52.476;13.334;2023-07-24T03:01:20;99962.19;;;18.62;67.87
58821;BME280;70670;52.476;13.334;2023-07-24T03:03:46;99909.00;;;18.26;68.12
58821;BME280;70670;52.476;13.334;2023-07-24T03:06:11;99960.78;;;18.58;68.27
58821;BME280;70670;52.476;13.334;2023-07-24T03:08:37;99906.72;;;18.21;68.47
58821;BME280;70670;52.476;13.334;2023-07-24T03:11:05;99953.59;;;18.49;68.68
58821;BME280;70670;52.476;13.334;2023-07-24T03:13:31;99972.66;;;18.57;68.62
58821;BME280;70670;52.476;13.334;2023-07-24T03:15:57;99961.81;;;18.57;68.68
58821;BME280;70670;52.476;13.334;2023-07-24T03:18:23;99963.81;;;18.55;69.27
58821;BME280;70670;52.476;13.334;2023-07-24T03:20:49;99912.56;;;18.26;69.24
58821;BME280;70670;52.476;13.334;2023-07-24T03:23:15;99929.44;;;18.38;69.31
58821;BME280;70670;52.476;13.334;2023-07-24T03:25:41;99969.47;;;18.62;69.23
58821;BME280;70670;52.476;13.334;2023-07-24T03:28:06;99963.19;;;18.61;69.46
58821;BME280;70670;52.476;13.334;2023-07-24T03:30:33;99963.50;;;18.58;69.76
58821;BME280;70670;52.476;13.334;2023-07-24T03:32:58;99971.47;;;18.60;70.02
58821;BME280;70670;52.476;13.334;2023-07-24T03:35:24;99967.75;;;18.61;69.99
58821;BME280;70670;52.476;13.334;2023-07-24T03:37:50;99959.78;;;18.59;70.34
58821;BME280;70670;52.476;13.334;2023-07-24T03:40:15;99966.97;;;18.51;71.66
58821;BME280;70670;52.476;13.334;2023-07-24T03:42:41;99926.16;;;18.16;72.27
58821;BME280;70670;52.476;13.334;2023-07-24T03:45:10;99969.06;;;18.39;72.73
58821;BME280;70670;52.476;13.334;2023-07-24T03:47:36;99975.50;;;18.38;72.74
58821;BME280;70670;52.476;13.334;2023-07-24T03:50:02;99978.19;;;18.38;73.18
58821;BME280;70670;52.476;13.334;2023-07-24T03:52:27;99978.50;;;18.35;73.26
58821;BME280;70670;52.476;13.334;2023-07-24T03:54:53;99975.06;;;18.33;73.64
58821;BME280;70670;52.476;13.334;2023-07-24T03:57:19;99906.34;;;17.98;73.92
58821;BME280;70670;52.476;13.334;2023-07-24T03:59:44;99978.41;;;18.27;75.75
58821;BME280;70670;52.476;13.334;2023-07-24T04:02:10;99980.31;;;18.16;76.63
58821;BME280;70670;52.476;13.334;2023-07-24T04:04:36;99976.22;;;18.12;77.27
58821;BME280;70670;52.476;13.334;2023-07-24T04:07:02;99963.03;;;18.00;77.21
58821;BME280;70670;52.476;13.334;2023-07-24T04:09:28;99954.75;;;18.01;77.32
58821;BME280;70670;52.476;13.334;2023-07-24T04:11:53;99966.97;;;18.05;78.01
58821;BME280;70670;52.476;13.334;2023-07-24T04:14:19;99928.03;;;17.88;77.71
58821;BME280;70670;52.476;13.334;2023-07-24T04:16:45;99962.66;;;18.12;77.34
58821;BME280;70670;52.476;13.334;2023-07-24T04:19:10;99936.41;;;17.95;77.67
58821;BME280;70670;52.476;13.334;2023-07-24T04:21:36;99964.06;;;18.16;77.43
58821;BME280;70670;52.476;13.334;2023-07-24T04:24:02;99954.25;;;18.15;77.62
58821;BME280;70670;52.476;13.334;2023-07-24T04:26:27;99962.28;;;18.25;77.07
58821;BME280;70670;52.476;13.334;2023-07-24T04:28:53;99957.75;;;18.26;76.38
58821;BME280;70670;52.476;13.334;2023-07-24T04:31:18;99975.53;;;18.28;76.92
58821;BME280;70670;52.476;13.334;2023-07-24T04:33:44;99964.97;;;18.35;76.20
58821;BME280;70670;52.476;13.334;2023-07-24T04:36:10;99961.09;;;18.37;76.31
58821;BME280;70670;52.476;13.334;2023-07-24T04:38:35;99914.47;;;18.16;76.49
58821;BME280;70670;52.476;13.334;2023-07-24T04:41:01;99954.03;;;18.44;76.29
58821;BME280;70670;52.476;13.334;2023-07-24T04:43:28;99956.44;;;18.48;76.25
58821;BME280;70670;52.476;13.334;2023-07-24T04:45:54;99958.69;;;18.52;76.02
58821;BME280;70670;52.476;13.334;2023-07-24T04:48:38;99957.78;;;18.61;75.93
58821;BME280;70670;52.476;13.334;2023-07-24T04:51:04;99943.13;;;18.54;75.54
58821;BME280;70670;52.476;13.334;2023-07-24T04:53:29;99894.81;;;18.32;76.19
58821;BME280;70670;52.476;13.334;2023-07-24T04:55:55;99950.88;;;18.67;75.75
58821;BME280;70670;52.476;13.334;2023-07-24T04:58:21;99952.00;;;18.74;75.58
58821;BME280;70670;52.476;13.334;2023-07-24T05:00:46;99949.97;;;18.76;75.22
58821;BME280;70670;52.476;13.334;2023-07-24T05:03:12;99955.63;;;18.83;75.72
58821;BME280;70670;52.476;13.334;2023-07-24T05:05:38;99949.25;;;18.92;75.14
58821;BME280;70670;52.476;13.334;2023-07-24T05:08:04;99951.50;;;18.97;75.06
58821;BME280;70670;52.476;13.334;2023-07-24T05:10:34;99954.44;;;19.03;75.17
58821;BME280;70670;52.476;13.334;2023-07-24T05:13:00;99889.34;;;18.77;74.54
58821;BME280;70670;52.476;13.334;2023-07-24T05:15:26;99943.88;;;19.18;74.56
58821;BME280;70670;52.476;13.334;2023-07-24T05:17:52;99834.91;;;18.71;74.05
58821;BME280;70670;52.476;13.334;2023-07-24T05:20:17;99928.53;;;19.35;73.05
58821;BME280;70670;52.476;13.334;2023-07-24T05:22:43;99933.88;;;19.45;73.59
58821;BME280;70670;52.476;13.334;2023-07-24T05:25:09;99928.97;;;19.48;73.33
58821;BME280;70670;52.476;13.334;2023-07-24T05:27:35;99945.44;;;19.55;73.12
58821;BME280;70670;52.476;13.334;2023-07-24T05:30:01;99933.75;;;19.54;72.79
58821;BME280;70670;52.476;13.334;2023-07-24T05:32:27;99887.31;;;19.31;73.20
58821;BME280;70670;52.476;13.334;2023-07-24T05:35:11;99931.94;;;19.63;71.99
58821;BME280;70670;52.476;13.334;2023-07-24T05:37:37;99937.31;;;19.55;71.49
58821;BME280;70670;52.476;13.334;2023-07-24T05:40:03;99924.97;;;19.60;72.01
58821;BME280;70670;52.476;13.334;2023-07-24T05:42:28;99912.09;;;19.62;72.25
58821;BME280;70670;52.476;13.334;2023-07-24T05:44:54;99870.25;;;19.47;72.20
58821;BME280;70670;52.476;13.334;2023-07-24T05:47:20;99921.03;;;19.89;71.83
58821;BME280;70670;52.476;13.334;2023-07-24T05:49:45;99912.38;;;19.85;71.18
58821;BME280;70670;52.476;13.334;2023-07-24T05:52:11;99908.97;;;19.92;70.44
58821;BME280;70670;52.476;13.334;2023-07-24T05:54:36;99911.75;;;20.00;70.76
58821;BME280;70670;52.476;13.334;2023-07-24T05:57:02;99912.25;;;20.03;69.87
58821;BME280;70670;52.476;13.334;2023-07-24T05:59:28;99895.28;;;20.09;70.36
58821;BME280;70670;52.476;13.334;2023-07-24T06:01:53;99894.28;;;20.10;69.13
58821;BME280;70670;52.476;13.334;2023-07-24T06:04:19;99899.41;;;20.22;69.12
58821;BME280;70670;52.476;13.334;2023-07-24T06:06:45;99892.09;;;20.30;68.88
58821;BME280;70670;52.476;13.334;2023-07-24T06:09:10;99890.59;;;20.36;68.34
58821;BME280;70670;52.476;13.334;2023-07-24T06:11:36;99870.22;;;20.24;67.75
58821;BME280;70670;52.476;13.334;2023-07-24T06:14:01;99884.97;;;20.29;67.83
58821;BME280;70670;52.476;13.334;2023-07-24T06:16:27;99883.81;;;20.40;66.75
58821;BME280;70670;52.476;13.334;2023-07-24T06:18:53;99893.31;;;20.44;66.75
58821;BME280;70670;52.476;13.334;2023-07-24T06:21:19;99889.78;;;20.52;66.16
58821;BME280;70670;52.476;13.334;2023-07-24T06:23:44;99884.38;;;20.52;66.47
58821;BME280;70670;52.476;13.334;2023-07-24T06:26:10;99870.59;;;20.53;66.26
58821;BME280;70670;52.476;13.334;2023-07-24T06:28:35;99878.75;;;20.61;66.02
58821;BME280;70670;52.476;13.334;2023-07-24T06:31:19;99873.63;;;20.67;64.77
58821;BME280;70670;52.476;13.334;2023-07-24T06:33:45;99868.03;;;20.76;65.46
58821;BME280;70670;52.476;13.334;2023-07-24T06:36:11;99870.94;;;20.83;64.30
58821;BME280;70670;52.476;13.334;2023-07-24T06:38:36;99867.84;;;20.78;64.25
58821;BME280;70670;52.476;13.334;2023-07-24T06:41:02;99868.53;;;20.88;64.30
58821;BME280;70670;52.476;13.334;2023-07-24T06:43:28;99871.06;;;20.90;63.79
58821;BME280;70670;52.476;13.334;2023-07-24T06:45:54;99872.44;;;20.94;63.70
58821;BME280;70670;52.476;13.334;2023-07-24T06:48:20;99854.06;;;21.04;63.69
58821;BME280;70670;52.476;13.334;2023-07-24T06:50:45;99852.84;;;21.15;63.62
58821;BME280;70670;52.476;13.334;2023-07-24T06:53:11;99811.06;;;20.99;63.46
58821;BME280;70670;52.476;13.334;2023-07-24T06:55:36;99850.63;;;21.34;63.02
58821;BME280;70670;52.476;13.334;2023-07-24T06:58:02;99844.28;;;21.34;62.74
58821;BME280;70670;52.476;13.334;2023-07-24T07:00:28;99856.53;;;21.38;62.80
58821;BME280;70670;52.476;13.334;2023-07-24T07:02:54;99846.66;;;21.45;62.70
58821;BME280;70670;52.476;13.334;2023-07-24T07:05:19;99833.50;;;21.57;62.05
58821;BME280;70670;52.476;13.334;2023-07-24T07:07:45;99834.63;;;21.71;61.76
58821;BME280;70670;52.476;13.334;2023-07-24T07:10:11;99791.53;;;21.43;60.80
58821;BME280;70670;52.476;13.334;2023-07-24T07:12:36;99836.88;;;21.67;60.67
58821;BME280;70670;52.476;13.334;2023-07-24T07:15:02;99798.19;;;21.41;60.30
58821;BME280;70670;52.476;13.334;2023-07-24T07:17:28;99817.03;;;21.50;59.46
58821;BME280;70670;52.476;13.334;2023-07-24T07:19:53;99826.97;;;21.74;59.53
58821;BME280;70670;52.476;13.334;2023-07-24T07:22:21;99828.41;;;21.85;59.21
58821;BME280;70670;52.476;13.334;2023-07-24T07:24:47;99777.41;;;21.48;58.73
58821;BME280;70670;52.476;13.334;2023-07-24T07:27:13;99818.84;;;21.89;59.49
58821;BME280;70670;52.476;13.334;2023-07-24T07:29:42;99824.03;;;21.76;58.75
58821;BME280;70670;52.476;13.334;2023-07-24T07:32:26;99807.06;;;21.66;58.24
58821;BME280;70670;52.476;13.334;2023-07-24T07:34:52;99793.00;;;21.62;58.73
58821;BME280;70670;52.476;13.334;2023-07-24T07:37:18;99832.06;;;22.00;58.25
58821;BME280;70670;52.476;13.334;2023-07-24T07:39:44;99847.34;;;22.09;57.58
58821;BME280;70670;52.476;13.334;2023-07-24T07:42:09;99845.13;;;22.13;57.40
58821;BME280;70670;52.476;13.334;2023-07-24T07:44:35;99836.44;;;22.18;57.30
58821;BME280;70670;52.476;13.334;2023-07-24T07:47:01;99837.31;;;22.33;57.10
58821;BME280;70670;52.476;13.334;2023-07-24T07:49:26;99849.88;;;22.42;57.05
58821;BME280;70670;52.476;13.334;2023-07-24T07:51:52;99866.78;;;22.38;56.87
58821;BME280;70670;52.476;13.334;2023-07-24T07:54:18;99854.41;;;22.27;57.39
58821;BME280;70670;52.476;13.334;2023-07-24T07:56:44;99828.84;;;22.28;57.23
58821;BME280;70670;52.476;13.334;2023-07-24T07:59:09;99850.94;;;22.56;57.00
58821;BME280;70670;52.476;13.334;2023-07-24T08:01:53;99842.88;;;22.63;56.58
58821;BME280;70670;52.476;13.334;2023-07-24T08:04:19;99834.53;;;22.79;56.09
58821;BME280;70670;52.476;13.334;2023-07-24T08:06:45;99840.53;;;22.97;55.68
58821;BME280;70670;52.476;13.334;2023-07-24T08:09:10;99843.31;;;22.89;54.46
58821;BME280;70670;52.476;13.334;2023-07-24T08:11:36;99821.94;;;22.78;54.27
58821;BME280;70670;52.476;13.334;2023-07-24T08:14:02;99828.53;;;22.83;54.94
58821;BME280;70670;52.476;13.334;2023-07-24T08:16:27;99774.41;;;22.57;55.30
58821;BME280;70670;52.476;13.334;2023-07-24T08:18:53;99818.72;;;22.97;54.80
58821;BME280;70670;52.476;13.334;2023-07-24T08:21:18;99806.00;;;23.04;53.68
58821;BME280;70670;52.476;13.334;2023-07-24T08:23:44;99800.94;;;23.01;53.56
58821;BME280;70670;52.476;13.334;2023-07-24T08:26:10;99811.72;;;22.95;53.59
58821;BME280;70670;52.476;13.334;2023-07-24T08:28:35;99786.19;;;22.73;54.48
58821;BME280;70670;52.476;13.334;2023-07-24T08:31:01;99773.88;;;22.77;54.11
58821;BME280;70670;52.476;13.334;2023-07-24T08:33:28;99757.97;;;22.80;53.42
58821;BME280;70670;52.476;13.334;2023-07-24T08:35:59;99769.66;;;23.04;53.96
58821;BME280;70670;52.476;13.334;2023-07-24T08:38:24;99795.91;;;23.20;53.09
58821;BME280;70670;52.476;13.334;2023-07-24T08:41:06;99760.53;;;23.12;54.20
58821;BME280;70670;52.476;13.334;2023-07-24T08:43:33;99765.81;;;22.98;53.26
58821;BME280;70670;52.476;13.334;2023-07-24T08:46:00;99798.66;;;23.05;53.78
58821;BME280;70670;52.476;13.334;2023-07-24T08:48:34;99781.72;;;23.10;53.84
58821;BME280;70670;52.476;13.334;2023-07-24T08:51:07;99771.84;;;23.09;54.12
58821;BME280;70670;52.476;13.334;2023-07-24T08:53:34;99782.28;;;23.20;53.88
58821;BME280;70670;52.476;13.334;2023-07-24T08:56:02;99730.25;;;23.06;53.40
58821;BME280;70670;52.476;13.334;2023-07-24T08:58:29;99786.22;;;23.32;54.35
58821;BME280;70670;52.476;13.334;2023-07-24T09:00:56;99776.75;;;23.13;54.22
58821;BME280;70670;52.476;13.334;2023-07-24T09:03:22;99770.34;;;23.21;54.61
58821;BME280;70670;52.476;13.334;2023-07-24T09:06:06;99767.22;;;23.24;54.65
58821;BME280;70670;52.476;13.334;2023-07-24T09:08:39;99746.97;;;23.33;54.51
58821;BME280;70670;52.476;13.334;2023-07-24T09:11:06;99747.47;;;23.58;54.37
58821;BME280;70670;52.476;13.334;2023-07-24T09:13:32;99775.53;;;23.67;52.21
58821;BME280;70670;52.476;13.334;2023-07-24T09:15:58;99755.19;;;23.54;52.73
58821;BME280;70670;52.476;13.334;2023-07-24T09:18:25;99750.59;;;23.55;52.75
58821;BME280;70670;52.476;13.334;2023-07-24T09:20:50;99752.72;;;23.60;53.28
58821;BME280;70670;52.476;13.334;2023-07-24T09:23:25;99735.63;;;23.66;52.83
58821;BME280;70670;52.476;13.334;2023-07-24T09:25:51;99733.69;;;23.81;53.05
58821;BME280;70670;52.476;13.334;2023-07-24T09:28:17;99703.63;;;23.81;52.51
58821;BME280;70670;52.476;13.334;2023-07-24T09:30:52;99738.97;;;24.04;52.01
58821;BME280;70670;52.476;13.334;2023-07-24T09:33:18;99727.88;;;23.91;52.33
58821;BME280;70670;52.476;13.334;2023-07-24T09:35:43;99735.50;;;23.95;52.44
58821;BME280;70670;52.476;13.334;2023-07-24T09:38:10;99711.56;;;23.76;51.91
58821;BME280;70670;52.476;13.334;2023-07-24T09:40:44;99734.06;;;23.99;52.04
58821;BME280;70670;52.476;13.334;2023-07-24T09:43:22;99699.53;;;23.92;51.84
58821;BME280;70670;52.476;13.334;2023-07-24T09:45:49;99736.13;;;24.19;51.30
58821;BME280;70670;52.476;13.334;2023-07-24T09:48:16;99750.00;;;24.17;50.40
58821;BME280;70670;52.476;13.334;2023-07-24T09:50:44;99747.06;;;24.19;50.82
58821;BME280;70670;52.476;13.334;2023-07-24T09:53:34;99747.47;;;24.16;50.20
58821;BME280;70670;52.476;13.334;2023-07-24T09:56:03;99724.75;;;24.15;49.91
58821;BME280;70670;52.476;13.334;2023-07-24T09:58:33;99730.69;;;24.40;49.14
58821;BME280;70670;52.476;13.334;2023-07-24T10:00:59;99737.28;;;24.52;49.31
58821;BME280;70670;52.476;13.334;2023-07-24T10:03:26;99721.78;;;24.60;49.41
58821;BME280;70670;52.476;13.334;2023-07-24T10:05:52;99721.09;;;24.51;48.43
58821;BME280;70670;52.476;13.334;2023-07-24T10:08:36;99717.00;;;24.40;49.56
58821;BME280;70670;52.476;13.334;2023-07-24T10:11:02;99706.22;;;24.60;49.67
58821;BME280;70670;52.476;13.334;2023-07-24T10:13:28;99671.25;;;24.56;48.95
58821;BME280;70670;52.476;13.334;2023-07-24T10:15:54;99664.19;;;24.74;48.80
58821;BME280;70670;52.476;13.334;2023-07-24T10:18:28;99675.31;;;25.08;48.65
58821;BME280;70670;52.476;13.334;2023-07-24T10:21:08;99662.13;;;25.24;47.75
58821;BME280;70670;52.476;13.334;2023-07-24T10:23:35;99669.59;;;25.50;47.47
58821;BME280;70670;52.476;13.334;2023-07-24T10:26:05;99666.38;;;25.40;46.98
58821;BME280;70670;52.476;13.334;2023-07-24T10:28:33;99660.03;;;25.33;46.14
58821;BME280;70670;52.476;13.334;2023-07-24T10:31:01;99652.25;;;25.37;45.83
58821;BME280;70670;52.476;13.334;2023-07-24T10:33:30;99637.75;;;25.49;45.25
58821;BME280;70670;52.476;13.334;2023-07-24T10:36:09;99655.28;;;25.75;44.71
58821;BME280;70670;52.476;13.334;2023-07-24T10:38:37;99640.53;;;25.76;44.91
58821;BME280;70670;52.476;13.334;2023-07-24T10:41:04;99652.34;;;25.70;44.29
58821;BME280;70670;52.476;13.334;2023-07-24T10:43:41;99640.72;;;25.55;44.95
58821;BME280;70670;52.476;13.334;2023-07-24T10:46:07;99628.69;;;25.56;45.25
58821;BME280;70670;52.476;13.334;2023-07-24T10:48:32;99587.81;;;25.34;44.64
58821;BME280;70670;52.476;13.334;2023-07-24T10:50:58;99629.19;;;25.79;45.39
58821;BME280;70670;52.476;13.334;2023-07-24T10:53:23;99628.75;;;25.95;43.41
58821;BME280;70670;52.476;13.334;2023-07-24T10:55:50;99577.69;;;25.61;42.05
58821;BME280;70670;52.476;13.334;2023-07-24T10:58:16;99611.88;;;25.92;41.98
58821;BME280;70670;52.476;13.334;2023-07-24T11:00:43;99587.00;;;25.67;41.27
58821;BME280;70670;52.476;13.334;2023-07-24T11:03:13;99608.28;;;25.85;41.60
58821;BME280;70670;52.476;13.334;2023-07-24T11:05:43;99619.47;;;25.83;41.32
58821;BME280;70670;52.476;13.334;2023-07-24T11:08:20;99589.53;;;25.88;41.36
58821;BME280;70670;52.476;13.334;2023-07-24T11:10:47;99566.75;;;26.08;41.51
58821;BME280;70670;52.476;13.334;2023-07-24T11:13:13;99570.50;;;26.33;40.92
58821;BME280;70670;52.476;13.334;2023-07-24T11:15:39;99537.66;;;26.07;41.25
58821;BME280;70670;52.476;13.334;2023-07-24T11:18:05;99587.59;;;26.22;40.84
58821;BME280;70670;52.476;13.334;2023-07-24T11:20:53;99594.59;;;26.11;41.12
58821;BME280;70670;52.476;13.334;2023-07-24T11:23:20;99563.38;;;26.06;41.72
58821;BME280;70670;52.476;13.334;2023-07-24T11:25:46;99569.09;;;25.97;41.97
58821;BME280;70670;52.476;13.334;2023-07-24T11:28:13;99566.53;;;26.03;42.28
58821;BME280;70670;52.476;13.334;2023-07-24T11:30:40;99562.50;;;26.12;41.97
58821;BME280;70670;52.476;13.334;2023-07-24T11:33:07;99548.84;;;25.98;41.24
58821;BME280;70670;52.476;13.334;2023-07-24T11:35:34;99557.47;;;25.95;41.77
58821;BME280;70670;52.476;13.334;2023-07-24T11:38:01;99508.16;;;25.82;41.25
58821;BME280;70670;52.476;13.334;2023-07-24T11:40:35;99546.25;;;26.17;41.31
58821;BME280;70670;52.476;13.334;2023-07-24T11:43:02;99539.69;;;26.24;40.72
58821;BME280;70670;52.476;13.334;2023-07-24T11:45:29;99513.56;;;26.09;40.60
58821;BME280;70670;52.476;13.334;2023-07-24T11:47:54;99531.31;;;26.06;40.80
58821;BME280;70670;52.476;13.334;2023-07-24T11:50:23;99539.31;;;26.08;40.80
58821;BME280;70670;52.476;13.334;2023-07-24T11:52:52;99516.78;;;26.06;41.27
58821;BME280;70670;52.476;13.334;2023-07-24T11:55:29;99448.31;;;25.66;41.40
58821;BME280;70670;52.476;13.334;2023-07-24T11:57:56;99562.69;;;26.23;40.79
58821;BME280;70670;52.476;13.334;2023-07-24T12:00:23;99533.38;;;26.24;40.56
58821;BME280;70670;52.476;13.334;2023-07-24T12:02:49;99510.22;;;26.00;40.06
58821;BME280;70670;52.476;13.334;2023-07-24T12:05:15;99551.13;;;26.15;39.83
58821;BME280;70670;52.476;13.334;2023-07-24T12:07:42;99532.34;;;26.05;40.34
58821;BME280;70670;52.476;13.334;2023-07-24T12:10:09;99560.41;;;26.00;40.86
58821;BME280;70670;52.476;13.334;2023-07-24T12:12:45;99553.91;;;25.95;41.04
58821;BME280;70670;52.476;13.334;2023-07-24T12:15:13;99564.25;;;25.86;41.54
58821;BME280;70670;52.476;13.334;2023-07-24T12:17:39;99547.75;;;25.73;41.53
58821;BME280;70670;52.476;13.334;2023-07-24T12:20:06;99548.38;;;25.62;42.01
58821;BME280;70670;52.476;13.334;2023-07-24T12:22:34;99569.03;;;25.31;46.90
58821;BME280;70670;52.476;13.334;2023-07-24T12:25:01;99564.13;;;25.07;49.52
58821;BME280;70670;52.476;13.334;2023-07-24T12:27:26;99582.88;;;24.55;50.85
58821;BME280;70670;52.476;13.334;2023-07-24T12:29:52;99560.75;;;24.22;51.97
58821;BME280;70670;52.476;13.334;2023-07-24T12:32:17;99588.66;;;24.11;52.79
58821;BME280;70670;52.476;13.334;2023-07-24T12:34:46;99606.81;;;23.90;53.64
58821;BME280;70670;52.476;13.334;2023-07-24T12:37:12;99614.47;;;23.59;56.83
58821;BME280;70670;52.476;13.334;2023-07-24T12:39:37;99561.38;;;22.97;59.17
58821;BME280;70670;52.476;13.334;2023-07-24T12:42:04;99592.31;;;22.89;60.82
58821;BME280;70670;52.476;13.334;2023-07-24T12:44:30;99594.69;;;22.77;61.11
58821;BME280;70670;52.476;13.334;2023-07-24T12:46:55;99569.00;;;22.72;61.38
58821;BME280;70670;52.476;13.334;2023-07-24T12:49:21;99590.91;;;22.93;61.16
58821;BME280;70670;52.476;13.334;2023-07-24T12:51:46;99532.53;;;22.73;60.39